createdAt,value
2023-05-10T00:01:22.941Z,25.07
2023-05-10T00:03:51.261Z,18.80
2023-05-10T00:06:21.203Z,21.37
2023-05-10T00:08:49.411Z,21.13
2023-05-10T00:11:17.579Z,21.73
2023-05-10T00:13:46.041Z,20.83
2023-05-10T00:16:14.576Z,20.83
2023-05-10T00:18:42.905Z,21.50
2023-05-10T00:21:11.098Z,20.17
2023-05-10T00:23:40.608Z,20.67
2023-05-10T00:26:08.751Z,23.97
2023-05-10T00:28:36.861Z,26.73
2023-05-10T00:31:05.110Z,21.53
2023-05-10T00:33:33.305Z,23.53
2023-05-10T00:36:01.505Z,27.43
2023-05-10T00:38:29.628Z,27.50
2023-05-10T00:40:59.164Z,26.73
2023-05-10T00:43:27.339Z,25.00
2023-05-10T00:45:55.808Z,24.80
2023-05-10T00:48:24.825Z,29.27
2023-05-10T00:50:53.006Z,30.03
2023-05-10T00:53:21.464Z,38.57
2023-05-10T00:55:49.643Z,45.80
2023-05-10T00:58:19.400Z,51.33
2023-05-10T01:00:49.628Z,56.77
2023-05-10T01:03:18.191Z,58.57
2023-05-10T01:05:46.513Z,65.20
2023-05-10T01:08:14.694Z,64.93
2023-05-10T01:10:43.488Z,65.27
2023-05-10T01:13:12.124Z,70.57
2023-05-10T01:15:41.768Z,70.27
2023-05-10T01:18:11.528Z,75.53
2023-05-10T01:20:43.037Z,75.77
2023-05-10T01:23:23.094Z,78.27
2023-05-10T01:26:09.746Z,77.80
2023-05-10T01:28:49.054Z,72.80
2023-05-10T01:31:25.517Z,84.97
2023-05-10T01:33:59.878Z,75.60
2023-05-10T01:36:30.288Z,77.60
2023-05-10T01:39:01.736Z,81.30
2023-05-10T01:41:33.260Z,78.00
2023-05-10T01:44:05.530Z,77.30
2023-05-10T01:46:36.163Z,83.00
2023-05-10T01:49:07.212Z,78.37
2023-05-10T01:51:39.314Z,84.83
2023-05-10T01:54:08.375Z,83.40
2023-05-10T01:56:37.663Z,92.03
2023-05-10T01:59:08.859Z,90.13
2023-05-10T02:01:39.646Z,82.30
2023-05-10T02:04:09.867Z,82.53
2023-05-10T02:06:38.381Z,81.73
2023-05-10T02:09:07.891Z,86.60
2023-05-10T02:11:36.072Z,89.33
2023-05-10T02:14:04.384Z,86.60
2023-05-10T02:16:33.350Z,75.07
2023-05-10T02:19:02.336Z,75.97
2023-05-10T02:21:33.731Z,78.57
2023-05-10T02:24:03.433Z,61.67
2023-05-10T02:26:32.069Z,56.50
2023-05-10T02:29:00.600Z,77.90
2023-05-10T02:31:28.896Z,77.03
2023-05-10T02:33:57.901Z,75.57
2023-05-10T02:36:26.359Z,78.00
2023-05-10T02:38:55.987Z,63.33
2023-05-10T02:41:25.187Z,59.77
2023-05-10T02:43:53.847Z,61.23
2023-05-10T02:46:22.262Z,65.47
2023-05-10T02:48:50.493Z,88.03
2023-05-10T02:51:19.965Z,78.57
2023-05-10T02:53:49.334Z,74.83
2023-05-10T02:56:23.317Z,68.20
2023-05-10T02:58:51.539Z,80.50
2023-05-10T03:01:19.783Z,89.27
2023-05-10T03:03:48.035Z,87.20
2023-05-10T03:06:17.223Z,85.83
2023-05-10T03:08:45.638Z,73.97
2023-05-10T03:11:28.677Z,55.57
2023-05-10T03:14:02.315Z,50.50
2023-05-10T03:16:33.332Z,61.00
2023-05-10T03:19:04.642Z,72.20
2023-05-10T03:21:32.871Z,63.00
2023-05-10T03:24:01.885Z,62.13
2023-05-10T03:26:30.523Z,85.30
2023-05-10T03:29:00.736Z,69.60
2023-05-10T03:31:29.037Z,68.20
2023-05-10T03:33:57.251Z,77.80
2023-05-10T03:36:25.458Z,67.23
2023-05-10T03:38:53.685Z,52.37
2023-05-10T03:41:22.232Z,72.37
2023-05-10T03:43:50.495Z,72.53
2023-05-10T03:46:20.099Z,73.07
2023-05-10T03:48:48.332Z,80.50
2023-05-10T03:51:16.619Z,62.80
2023-05-10T03:53:44.754Z,51.97
2023-05-10T03:56:12.966Z,55.60
2023-05-10T03:58:41.169Z,55.57
2023-05-10T04:01:09.320Z,55.93
2023-05-10T04:03:39.219Z,66.00
2023-05-10T04:06:09.213Z,50.27
2023-05-10T04:08:37.432Z,61.27
2023-05-10T04:11:09.436Z,60.97
2023-05-10T04:13:37.699Z,62.53
2023-05-10T04:16:06.103Z,50.53
2023-05-10T04:18:34.329Z,66.13
2023-05-10T04:21:03.863Z,47.77
2023-05-10T04:23:32.020Z,36.50
2023-05-10T04:26:03.247Z,35.13
2023-05-10T04:28:31.449Z,50.60
2023-05-10T04:31:03.595Z,43.60
2023-05-10T04:33:31.938Z,38.00
2023-05-10T04:36:00.160Z,59.33
2023-05-10T04:38:29.827Z,52.67
2023-05-10T04:41:06.335Z,39.57
2023-05-10T04:43:34.569Z,35.03
2023-05-10T04:46:02.791Z,31.43
2023-05-10T04:48:30.976Z,33.07
2023-05-10T04:50:59.251Z,48.93
2023-05-10T04:53:27.619Z,35.57
2023-05-10T04:55:57.141Z,45.63
2023-05-10T04:58:25.341Z,48.03
2023-05-10T05:00:53.523Z,45.33
2023-05-10T05:03:21.790Z,39.03
2023-05-10T05:05:50.000Z,50.87
2023-05-10T05:08:18.171Z,53.07
2023-05-10T05:10:46.400Z,35.67
2023-05-10T05:13:16.485Z,45.83
2023-05-10T05:15:44.664Z,34.47
2023-05-10T05:18:12.885Z,37.73
2023-05-10T05:20:41.521Z,35.53
2023-05-10T05:23:09.710Z,40.60
2023-05-10T05:25:38.186Z,50.17
2023-05-10T05:28:06.552Z,54.80
2023-05-10T05:30:36.066Z,58.47
2023-05-10T05:33:04.278Z,56.30
2023-05-10T05:35:32.456Z,60.40
2023-05-10T05:38:00.684Z,61.43
2023-05-10T05:40:28.815Z,56.93
2023-05-10T05:42:57.017Z,57.73
2023-05-10T05:45:25.236Z,65.80
2023-05-10T05:47:54.774Z,60.60
2023-05-10T05:50:22.952Z,50.50
2023-05-10T05:52:51.116Z,59.53
2023-05-10T05:55:19.448Z,72.13
2023-05-10T05:57:47.774Z,68.63
2023-05-10T06:00:16.402Z,67.40
2023-05-10T06:02:44.653Z,90.20
2023-05-10T06:05:15.108Z,92.40
2023-05-10T06:07:43.808Z,85.17
2023-05-10T06:10:12.159Z,108.63
2023-05-10T06:12:40.322Z,133.07
2023-05-10T06:15:09.115Z,105.50
2023-05-10T06:17:37.454Z,116.30
2023-05-10T06:20:06.224Z,129.47
2023-05-10T06:22:35.697Z,100.87
2023-05-10T06:25:04.030Z,92.63
2023-05-10T06:27:32.206Z,93.73
2023-05-10T06:30:11.667Z,87.63
2023-05-10T06:32:44.810Z,83.23
2023-05-10T06:35:12.987Z,86.20
2023-05-10T06:37:42.479Z,106.07
2023-05-10T06:40:11.088Z,74.07
2023-05-10T06:42:39.250Z,87.13
2023-05-10T06:45:07.881Z,76.00
2023-05-10T06:47:38.701Z,68.93
2023-05-10T06:50:07.793Z,74.70
2023-05-10T06:52:35.968Z,96.40
2023-05-10T06:55:05.722Z,69.83
2023-05-10T06:57:34.020Z,72.67
2023-05-10T07:00:02.230Z,62.07
2023-05-10T07:02:30.766Z,56.80
2023-05-10T07:05:01.730Z,57.70
2023-05-10T07:07:31.290Z,49.43
2023-05-10T07:09:59.513Z,58.80
2023-05-10T07:12:29.031Z,54.07
2023-05-10T07:14:57.303Z,58.00
2023-05-10T07:17:25.603Z,47.80
2023-05-10T07:19:53.898Z,51.77
2023-05-10T07:22:22.020Z,51.77
2023-05-10T07:24:50.860Z,44.03
2023-05-10T07:27:19.112Z,34.60
2023-05-10T07:29:48.610Z,38.90
2023-05-10T07:32:17.116Z,29.13
2023-05-10T07:34:45.316Z,27.63
2023-05-10T07:37:13.490Z,31.77
2023-05-10T07:39:41.726Z,35.83
2023-05-10T07:42:09.856Z,30.33
2023-05-10T07:44:37.965Z,26.00
2023-05-10T07:47:07.556Z,30.90
2023-05-10T07:49:36.654Z,36.77
2023-05-10T07:52:05.907Z,35.67
2023-05-10T07:54:34.724Z,23.90
2023-05-10T07:57:03.049Z,21.80
2023-05-10T07:59:31.272Z,23.67
2023-05-10T08:01:59.440Z,24.50
2023-05-10T08:04:29.140Z,31.23
2023-05-10T08:06:57.376Z,34.73
2023-05-10T08:09:25.629Z,27.23
2023-05-10T08:11:53.806Z,23.53
2023-05-10T08:14:22.025Z,32.67
2023-05-10T08:16:50.217Z,27.33
2023-05-10T08:19:20.379Z,23.43
2023-05-10T08:21:50.024Z,19.57
2023-05-10T08:24:18.174Z,20.17
2023-05-10T08:26:46.309Z,19.13
2023-05-10T08:29:14.498Z,21.53
2023-05-10T08:31:42.751Z,39.67
2023-05-10T08:34:10.986Z,27.93
2023-05-10T08:36:39.195Z,28.40
2023-05-10T08:39:16.184Z,39.80
2023-05-10T08:41:53.756Z,33.37
2023-05-10T08:44:21.939Z,25.90
2023-05-10T08:46:52.526Z,22.70
2023-05-10T08:49:22.698Z,22.90
2023-05-10T08:51:53.050Z,20.07
2023-05-10T08:54:23.471Z,18.00
2023-05-10T08:56:51.690Z,20.57
2023-05-10T08:59:19.833Z,22.43
2023-05-10T09:01:50.380Z,17.57
2023-05-10T09:04:18.720Z,19.67
2023-05-10T09:06:47.019Z,11.80
2023-05-10T09:09:15.697Z,14.07
2023-05-10T09:11:45.229Z,16.57
2023-05-10T09:14:15.089Z,16.80
2023-05-10T09:16:43.354Z,15.77
2023-05-10T09:19:11.932Z,15.30
2023-05-10T09:21:40.186Z,16.43
2023-05-10T09:24:08.628Z,14.27
2023-05-10T09:26:37.480Z,11.70
2023-05-10T09:29:07.786Z,9.50
2023-05-10T09:31:51.823Z,9.73
2023-05-10T09:34:21.169Z,12.83
2023-05-10T09:36:53.333Z,16.17
2023-05-10T09:39:21.646Z,10.37
2023-05-10T09:41:50.384Z,10.30
2023-05-10T09:44:22.732Z,11.80
2023-05-10T09:46:53.743Z,11.53
2023-05-10T09:49:22.024Z,10.97
2023-05-10T09:51:50.470Z,12.33
2023-05-10T09:54:19.077Z,11.97
2023-05-10T09:56:47.269Z,15.20
2023-05-10T09:59:15.546Z,14.10
2023-05-10T10:01:51.925Z,13.43
2023-05-10T10:04:20.444Z,12.97
2023-05-10T10:06:48.614Z,15.83
2023-05-10T10:09:18.428Z,18.60
2023-05-10T10:11:46.823Z,16.27
2023-05-10T10:14:15.355Z,15.83
2023-05-10T10:16:55.659Z,15.83
2023-05-10T10:19:33.253Z,16.30
2023-05-10T10:22:01.467Z,14.67
2023-05-10T10:24:29.735Z,16.57
2023-05-10T10:27:00.005Z,16.90
2023-05-10T10:29:30.987Z,22.10
2023-05-10T10:32:06.598Z,23.03
2023-05-10T10:34:34.836Z,18.87
2023-05-10T10:37:06.817Z,23.13
2023-05-10T10:39:37.600Z,25.10
2023-05-10T10:42:06.982Z,24.27
2023-05-10T10:44:42.604Z,21.07
2023-05-10T10:47:14.936Z,21.00
2023-05-10T10:49:47.141Z,24.37
2023-05-10T10:52:15.707Z,20.43
2023-05-10T10:54:43.920Z,26.17
2023-05-10T10:57:15.300Z,29.03
2023-05-10T10:59:47.295Z,32.13
2023-05-10T11:02:31.325Z,32.57
2023-05-10T11:05:01.790Z,29.97
2023-05-10T11:07:30.007Z,32.33
2023-05-10T11:09:58.231Z,37.53
2023-05-10T11:12:26.440Z,31.27
2023-05-10T11:14:54.640Z,26.47
2023-05-10T11:17:26.838Z,24.83
2023-05-10T11:20:11.867Z,27.27
2023-05-10T11:22:52.817Z,22.17
2023-05-10T11:25:21.317Z,17.57
2023-05-10T11:27:50.726Z,15.03
2023-05-10T11:30:19.318Z,32.13
2023-05-10T11:32:47.807Z,17.83
2023-05-10T11:35:17.445Z,15.63
2023-05-10T11:37:46.155Z,20.67
2023-05-10T11:40:15.725Z,19.47
2023-05-10T11:42:44.111Z,15.20
2023-05-10T11:45:12.807Z,16.70
2023-05-10T11:47:43.383Z,10.47
2023-05-10T11:50:12.079Z,10.33
2023-05-10T11:52:41.657Z,12.00
2023-05-10T11:55:10.064Z,11.33
2023-05-10T11:57:39.378Z,9.10
2023-05-10T12:00:08.472Z,9.43
2023-05-10T12:02:36.676Z,10.27
2023-05-10T12:05:06.131Z,11.43
2023-05-10T12:07:34.492Z,12.77
2023-05-10T12:10:11.006Z,8.47
2023-05-10T12:12:43.790Z,8.77
2023-05-10T12:15:19.817Z,10.17
2023-05-10T12:17:48.224Z,9.90
2023-05-10T12:20:17.285Z,9.47
2023-05-10T12:22:49.743Z,11.07
2023-05-10T12:25:19.448Z,14.13
2023-05-10T12:27:51.560Z,10.73
2023-05-10T12:30:23.596Z,9.80
2023-05-10T12:32:52.214Z,10.10
2023-05-10T12:35:22.789Z,10.53
2023-05-10T12:37:51.057Z,12.03
2023-05-10T12:40:21.079Z,13.17
2023-05-10T12:42:49.799Z,9.33
2023-05-10T12:45:20.096Z,11.07
2023-05-10T12:47:48.308Z,7.97
2023-05-10T12:50:16.686Z,8.57
2023-05-10T12:52:45.073Z,9.37
2023-05-10T12:55:13.227Z,9.77
2023-05-10T12:57:42.680Z,10.10
2023-05-10T13:00:11.559Z,8.97
2023-05-10T13:02:39.838Z,8.70
2023-05-10T13:05:08.859Z,8.07
2023-05-10T13:07:38.260Z,7.37
2023-05-10T13:10:06.766Z,7.50
2023-05-10T13:12:35.103Z,6.93
2023-05-10T13:15:04.695Z,7.00
2023-05-10T13:17:34.172Z,8.27
2023-05-10T13:20:02.432Z,8.30
2023-05-10T13:22:39.652Z,6.17
2023-05-10T13:25:08.850Z,6.47
2023-05-10T13:27:36.959Z,6.20
2023-05-10T13:30:07.116Z,6.73
2023-05-10T13:32:35.886Z,5.47
2023-05-10T13:35:05.401Z,5.47
2023-05-10T13:37:36.409Z,4.83
2023-05-10T13:40:05.065Z,4.87
2023-05-10T13:42:34.481Z,6.93
2023-05-10T13:45:02.993Z,6.00
2023-05-10T13:47:32.553Z,6.93
2023-05-10T13:50:00.658Z,6.23
2023-05-10T13:52:28.866Z,6.73
2023-05-10T13:54:57.279Z,6.63
2023-05-10T13:57:25.581Z,8.30
2023-05-10T13:59:55.891Z,8.07
2023-05-10T14:02:27.017Z,8.40
2023-05-10T14:04:56.637Z,6.23
2023-05-10T14:07:24.797Z,8.10
2023-05-10T14:09:52.973Z,6.07
2023-05-10T14:12:21.176Z,6.90
2023-05-10T14:14:49.351Z,6.13
2023-05-10T14:17:17.579Z,6.53
2023-05-10T14:19:45.741Z,6.53
2023-05-10T14:22:15.354Z,6.70
2023-05-10T14:24:44.985Z,6.23
2023-05-10T14:27:13.293Z,8.37
2023-05-10T14:29:41.514Z,5.40
2023-05-10T14:32:09.670Z,5.20
2023-05-10T14:34:37.843Z,6.23
2023-05-10T14:37:06.202Z,8.53
2023-05-10T14:39:36.044Z,4.70
2023-05-10T14:42:04.760Z,4.50
2023-05-10T14:44:32.932Z,4.20
2023-05-10T14:47:01.044Z,5.93
2023-05-10T14:49:29.158Z,4.70
2023-05-10T14:51:57.544Z,3.93
2023-05-10T14:54:25.752Z,4.37
2023-05-10T14:56:55.428Z,3.70
2023-05-10T14:59:23.676Z,3.00
2023-05-10T15:01:52.570Z,2.60
2023-05-10T15:04:22.448Z,3.20
2023-05-10T15:06:51.183Z,2.90
2023-05-10T15:09:19.307Z,3.90
2023-05-10T15:11:47.460Z,3.90
2023-05-10T15:14:16.916Z,3.33
2023-05-10T15:16:45.062Z,3.13
2023-05-10T15:19:13.188Z,3.40
2023-05-10T15:21:43.380Z,4.47
2023-05-10T15:24:11.631Z,4.13
2023-05-10T15:26:39.795Z,4.23
2023-05-10T15:29:07.917Z,3.73
2023-05-10T15:31:37.606Z,4.00
2023-05-10T15:34:05.941Z,4.13
2023-05-10T15:36:34.340Z,4.90
2023-05-10T15:39:02.474Z,4.93
2023-05-10T15:41:30.959Z,4.23
2023-05-10T15:44:00.600Z,4.00
2023-05-10T15:46:28.969Z,4.37
2023-05-10T15:48:59.266Z,5.00
2023-05-10T15:51:27.448Z,3.97
2023-05-10T15:54:06.608Z,4.20
2023-05-10T15:56:35.646Z,4.30
2023-05-10T15:59:05.883Z,4.20
2023-05-10T16:01:34.279Z,4.10
2023-05-10T16:04:03.939Z,4.83
2023-05-10T16:06:32.565Z,6.67
2023-05-10T16:09:00.753Z,6.70
2023-05-10T16:11:29.037Z,6.60
2023-05-10T16:13:57.257Z,5.87
2023-05-10T16:16:25.500Z,6.60
2023-05-10T16:18:53.795Z,6.97
2023-05-10T16:21:23.334Z,8.47
2023-05-10T16:23:51.551Z,6.93
2023-05-10T16:26:19.688Z,7.13
2023-05-10T16:28:48.547Z,6.50
2023-05-10T16:31:18.272Z,7.87
2023-05-10T16:33:46.600Z,9.30
2023-05-10T16:36:14.799Z,7.90
2023-05-10T16:38:44.347Z,7.93
2023-05-10T16:41:12.718Z,9.67
2023-05-10T16:43:40.889Z,8.23
2023-05-10T16:46:11.902Z,8.10
2023-05-10T16:48:40.106Z,7.73
2023-05-10T16:51:08.272Z,8.37
2023-05-10T16:53:36.636Z,7.73
2023-05-10T16:56:06.361Z,10.17
2023-05-10T16:58:34.509Z,7.93
2023-05-10T17:01:02.947Z,8.57
2023-05-10T17:03:31.277Z,7.43
2023-05-10T17:05:59.908Z,8.03
2023-05-10T17:08:28.171Z,9.17
2023-05-10T17:10:56.336Z,8.00
2023-05-10T17:13:26.154Z,8.20
2023-05-10T17:15:54.408Z,11.03
2023-05-10T17:18:22.722Z,8.17
2023-05-10T17:20:50.989Z,9.57
2023-05-10T17:23:19.316Z,10.27
2023-05-10T17:25:47.519Z,8.00
2023-05-10T17:28:15.682Z,9.03
2023-05-10T17:30:45.218Z,9.87
2023-05-10T17:33:13.361Z,7.83
2023-05-10T17:35:41.482Z,8.37
2023-05-10T17:38:09.643Z,7.37
2023-05-10T17:40:37.779Z,8.33
2023-05-10T17:43:05.914Z,8.93
2023-05-10T17:45:34.213Z,8.53
2023-05-10T17:48:04.127Z,8.33
2023-05-10T17:50:33.041Z,6.93
2023-05-10T17:53:01.213Z,7.60
2023-05-10T17:55:30.773Z,7.30
2023-05-10T17:58:00.014Z,6.10
2023-05-10T18:00:28.219Z,5.07
2023-05-10T18:02:56.491Z,6.70
2023-05-10T18:05:26.123Z,5.13
2023-05-10T18:07:54.330Z,4.40
2023-05-10T18:10:22.797Z,4.20
2023-05-10T18:12:52.445Z,4.23
2023-05-10T18:15:20.595Z,5.23
2023-05-10T18:17:48.749Z,4.43
2023-05-10T18:20:16.946Z,5.63
2023-05-10T18:22:46.455Z,4.30
2023-05-10T18:25:14.871Z,3.50
2023-05-10T18:27:43.322Z,3.73
2023-05-10T18:30:12.418Z,4.27
2023-05-10T18:32:40.786Z,4.23
2023-05-10T18:35:09.679Z,4.43
2023-05-10T18:37:38.592Z,3.90
2023-05-10T18:40:09.550Z,5.10
2023-05-10T18:42:37.752Z,5.23
2023-05-10T18:45:06.683Z,7.17
2023-05-10T18:47:34.893Z,6.50
2023-05-10T18:50:04.984Z,4.77
2023-05-10T18:52:33.203Z,6.40
2023-05-10T18:55:01.349Z,5.53
2023-05-10T18:57:31.041Z,3.13
2023-05-10T18:59:59.302Z,3.83
2023-05-10T19:02:27.571Z,3.63
2023-05-10T19:04:58.762Z,4.70
2023-05-10T19:07:27.010Z,4.37
2023-05-10T19:09:55.386Z,4.83
2023-05-10T19:12:23.522Z,4.50
2023-05-10T19:14:53.104Z,4.73
2023-05-10T19:17:21.334Z,5.33
2023-05-10T19:19:50.711Z,5.40
2023-05-10T19:22:31.930Z,5.10
2023-05-10T19:25:09.998Z,4.30
2023-05-10T19:27:38.106Z,3.67
2023-05-10T19:30:08.786Z,3.80
2023-05-10T19:32:37.085Z,4.10
2023-05-10T19:35:05.677Z,3.20
2023-05-10T19:37:34.023Z,4.33
2023-05-10T19:40:02.150Z,3.43
2023-05-10T19:42:30.323Z,3.77
2023-05-10T19:44:59.257Z,5.33
2023-05-10T19:47:28.849Z,5.93
2023-05-10T19:49:57.091Z,3.10
2023-05-10T19:52:25.289Z,3.27
2023-05-10T19:54:53.434Z,3.93
2023-05-10T19:57:21.803Z,3.30
2023-05-10T19:59:49.949Z,3.40
2023-05-10T20:02:18.204Z,3.50
2023-05-10T20:04:47.710Z,3.53
2023-05-10T20:07:15.881Z,3.73
2023-05-10T20:09:44.439Z,3.83
2023-05-10T20:12:12.625Z,3.40
2023-05-10T20:14:40.766Z,3.70
2023-05-10T20:17:09.058Z,3.57
2023-05-10T20:19:37.285Z,4.30
2023-05-10T20:22:09.212Z,4.30
2023-05-10T20:24:37.436Z,4.27
2023-05-10T20:27:05.650Z,4.47
2023-05-10T20:29:33.895Z,3.50
2023-05-10T20:32:02.110Z,4.47
2023-05-10T20:34:30.902Z,4.00
2023-05-10T20:36:59.057Z,4.23
2023-05-10T20:39:29.012Z,3.97
2023-05-10T20:41:57.181Z,6.60
2023-05-10T20:44:25.331Z,19.20
2023-05-10T20:46:53.521Z,39.57
2023-05-10T20:49:21.837Z,76.17
2023-05-10T20:51:50.048Z,171.10
2023-05-10T20:54:18.226Z,43.70
2023-05-10T20:56:47.762Z,7.77
2023-05-10T20:59:15.912Z,4.53
2023-05-10T21:01:44.193Z,4.47
2023-05-10T21:04:12.374Z,4.10
2023-05-10T21:06:40.581Z,4.10
2023-05-10T21:09:08.781Z,3.80
2023-05-10T21:11:38.284Z,4.20
2023-05-10T21:14:07.831Z,5.60
2023-05-10T21:16:36.220Z,4.37
2023-05-10T21:19:04.697Z,4.40
2023-05-10T21:21:33.040Z,4.57
2023-05-10T21:24:01.193Z,4.67
2023-05-10T21:26:29.568Z,5.53
2023-05-10T21:28:58.853Z,4.80
2023-05-10T21:31:28.625Z,4.70
2023-05-10T21:33:56.893Z,5.10
2023-05-10T21:36:25.089Z,4.90
2023-05-10T21:38:53.473Z,5.37
2023-05-10T21:41:21.679Z,6.03
2023-05-10T21:43:49.888Z,5.53
2023-05-10T21:46:18.164Z,6.73
2023-05-10T21:48:47.880Z,6.83
2023-05-10T21:51:16.053Z,6.27
2023-05-10T21:53:44.232Z,6.33
2023-05-10T21:56:12.527Z,6.63
2023-05-10T21:58:40.804Z,6.67
2023-05-10T22:01:09.095Z,6.57
2023-05-10T22:03:37.382Z,7.43
2023-05-10T22:06:08.389Z,8.47
2023-05-10T22:08:36.646Z,8.50
2023-05-10T22:11:04.786Z,8.53
2023-05-10T22:13:32.919Z,8.27
2023-05-10T22:16:01.195Z,8.13
2023-05-10T22:18:29.488Z,8.30
2023-05-10T22:20:57.654Z,9.77
2023-05-10T22:23:27.209Z,7.83
2023-05-10T22:25:55.393Z,8.00
2023-05-10T22:28:23.508Z,8.37
2023-05-10T22:30:51.724Z,8.97
2023-05-10T22:33:19.952Z,10.03
2023-05-10T22:35:48.141Z,9.77
2023-05-10T22:38:16.305Z,10.73
2023-05-10T22:40:45.815Z,10.10
2023-05-10T22:43:13.970Z,9.90
2023-05-10T22:45:42.201Z,10.23
2023-05-10T22:48:10.513Z,10.57
2023-05-10T22:50:38.716Z,11.00
2023-05-10T22:53:07.281Z,10.67
2023-05-10T22:55:36.505Z,10.03
2023-05-10T22:58:06.156Z,10.77
2023-05-10T23:00:34.405Z,11.73
2023-05-10T23:03:02.721Z,11.67
2023-05-10T23:05:30.910Z,11.50
2023-05-10T23:07:59.156Z,11.90
2023-05-10T23:10:27.284Z,11.33
2023-05-10T23:12:55.698Z,11.30
2023-05-10T23:15:25.606Z,12.00
2023-05-10T23:17:53.789Z,11.30
2023-05-10T23:20:22.175Z,10.70
2023-05-10T23:22:50.402Z,11.17
2023-05-10T23:25:18.641Z,12.33
2023-05-10T23:27:46.787Z,12.77
2023-05-10T23:30:15.189Z,11.93
2023-05-10T23:32:44.761Z,12.53
2023-05-10T23:35:12.906Z,11.93
2023-05-10T23:37:41.934Z,11.90
2023-05-10T23:40:10.535Z,12.73
2023-05-10T23:42:38.776Z,12.67
2023-05-10T23:45:07.351Z,13.67
2023-05-10T23:47:35.699Z,13.40
2023-05-10T23:50:05.934Z,13.00
2023-05-10T23:52:34.148Z,13.53
2023-05-10T23:55:02.387Z,13.53
2023-05-10T23:57:30.609Z,13.17
2023-05-10T23:59:58.791Z,12.97
